KBHC

Baxley Municipal Airport

Baxley, Georgia, USA
METAR KBHC 201855Z AUTO 26010G16KT 10SM SCT045 SCT060 30/19 A2993 RMK AO2
Observed Flight Rules
Oct-20 @ 18:55 UTC (26 minutes ago) Visual Flight Rules
Wind Visibility Clouds
260° at 10 knots
 Gusting to 16 knots
10 miles
  • Scattered at 4,500' AGL
  • Scattered at 6,000' AGL
Temperatures Readings
Current 30°C / 86°F
Dewpoint 19°C / 66°F
Humidity 52%
Altimeter 29.93" Hg
Pressure 1014 hPa
Elevation 61
METAR KBHC 201855Z AUTO 26010G16KT 10SM SCT045 SCT060 30/19 A2993 RMK AO2
Observed Flight Rules
Oct-20 @ 18:55 UTC
(26 minutes ago)
VFR
Wind Visibility
260° at 10 knots
 Gusting to 16 knots
10 miles
Clouds
  • Scattered at 4,500' AGL
  • Scattered at 6,000' AGL
Temperature Dewpoint
30°C / 86°F 19°C / 66°F
Humidity Altimeter Pressure
52% 29.93" Hg 1014 hPa